createdAt,value
2023-04-30T00:00:58.220Z,94.46
2023-04-30T00:01:58.204Z,94.46
2023-04-30T00:02:58.274Z,94.36
2023-04-30T00:03:58.434Z,94.36
2023-04-30T00:04:58.162Z,94.46
2023-04-30T00:05:58.221Z,94.46
2023-04-30T00:06:58.147Z,94.36
2023-04-30T00:07:58.119Z,94.40
2023-04-30T00:08:58.442Z,94.30
2023-04-30T00:09:58.088Z,94.40
2023-04-30T00:10:58.123Z,94.51
2023-04-30T00:11:58.089Z,94.40
2023-04-30T00:12:58.065Z,94.40
2023-04-30T00:13:58.036Z,94.40
2023-04-30T00:14:58.107Z,94.40
2023-04-30T00:15:58.044Z,94.40
2023-04-30T00:16:58.006Z,94.30
2023-04-30T00:17:58.048Z,94.40
2023-04-30T00:19:06.275Z,94.51
2023-04-30T00:19:57.966Z,94.61
2023-04-30T00:20:58.038Z,94.51
2023-04-30T00:21:57.940Z,94.30
2023-04-30T00:22:57.907Z,94.20
2023-04-30T00:23:57.929Z,94.30
2023-04-30T00:24:57.933Z,94.30
2023-04-30T00:25:57.908Z,94.30
2023-04-30T00:26:57.891Z,94.20
2023-04-30T00:27:57.874Z,94.34
2023-04-30T00:28:57.853Z,94.30
2023-04-30T00:29:57.853Z,94.34
2023-04-30T00:30:57.875Z,94.34
2023-04-30T00:31:57.894Z,94.34
2023-04-30T00:32:57.889Z,94.34
2023-04-30T00:33:57.785Z,94.34
2023-04-30T00:34:57.784Z,94.34
2023-04-30T00:35:57.757Z,94.34
2023-04-30T00:36:57.787Z,94.34
2023-04-30T00:37:57.723Z,94.24
2023-04-30T00:38:57.705Z,94.24
2023-04-30T00:39:57.766Z,94.24
2023-04-30T00:40:57.706Z,94.24
2023-04-30T00:41:57.699Z,94.24
2023-04-30T00:42:57.654Z,94.34
2023-04-30T00:43:57.680Z,94.24
2023-04-30T00:44:57.657Z,94.34
2023-04-30T00:45:57.638Z,94.45
2023-04-30T00:46:57.622Z,94.34
2023-04-30T00:47:57.650Z,94.49
2023-04-30T00:48:57.583Z,94.59
2023-04-30T00:49:57.619Z,94.59
2023-04-30T00:50:57.554Z,94.55
2023-04-30T00:51:57.545Z,94.59
2023-04-30T00:52:57.569Z,94.59
2023-04-30T00:53:57.570Z,94.59
2023-04-30T00:54:57.542Z,94.39
2023-04-30T00:55:57.530Z,94.49
2023-04-30T00:56:57.486Z,94.59
2023-04-30T00:57:57.472Z,94.59
2023-04-30T00:58:57.462Z,94.59
2023-04-30T00:59:57.484Z,94.59
2023-04-30T01:00:57.465Z,94.49
2023-04-30T01:01:57.462Z,94.39
2023-04-30T01:02:57.421Z,94.29
2023-04-30T01:03:57.389Z,94.29
2023-04-30T01:04:57.376Z,94.29
2023-04-30T01:05:57.410Z,94.29
2023-04-30T01:06:57.369Z,94.29
2023-04-30T01:07:57.358Z,94.18
2023-04-30T01:08:57.304Z,94.08
2023-04-30T01:09:57.340Z,94.08
2023-04-30T01:10:57.298Z,94.08
2023-04-30T01:11:57.310Z,94.02
2023-04-30T01:12:57.285Z,93.92
2023-04-30T01:13:57.286Z,94.12
2023-04-30T01:14:57.302Z,94.02
2023-04-30T01:15:57.298Z,94.12
2023-04-30T01:16:57.215Z,94.12
2023-04-30T01:17:57.405Z,94.12
2023-04-30T01:18:57.332Z,93.92
2023-04-30T01:19:57.226Z,94.02
2023-04-30T01:20:57.182Z,94.02
2023-04-30T01:21:57.233Z,93.92
2023-04-30T01:22:57.149Z,93.82
2023-04-30T01:23:57.142Z,93.82
2023-04-30T01:24:57.172Z,93.61
2023-04-30T01:25:57.093Z,93.61
2023-04-30T01:26:57.098Z,93.71
2023-04-30T01:27:57.114Z,93.71
2023-04-30T01:28:57.062Z,93.71
2023-04-30T01:29:57.105Z,93.71
2023-04-30T01:30:57.106Z,93.61
2023-04-30T01:31:57.054Z,93.61
2023-04-30T01:32:57.024Z,93.61
2023-04-30T01:33:57.012Z,93.61
2023-04-30T01:34:57.021Z,93.71
2023-04-30T01:35:56.969Z,93.71
2023-04-30T01:36:57.015Z,93.61
2023-04-30T01:37:56.964Z,93.76
2023-04-30T01:38:56.931Z,93.76
2023-04-30T01:39:57.236Z,93.55
2023-04-30T01:40:56.912Z,93.55
2023-04-30T01:41:56.939Z,93.55
2023-04-30T01:42:56.894Z,93.44
2023-04-30T01:43:56.898Z,93.35
2023-04-30T01:44:56.965Z,93.44
2023-04-30T01:45:56.864Z,93.55
2023-04-30T01:46:56.865Z,93.55
2023-04-30T01:47:56.853Z,93.44
2023-04-30T01:48:56.827Z,93.55
2023-04-30T01:49:57.030Z,93.55
2023-04-30T01:50:56.812Z,93.44
2023-04-30T01:51:56.776Z,93.44
2023-04-30T01:52:56.821Z,93.55
2023-04-30T01:53:56.751Z,93.55
2023-04-30T01:54:56.774Z,93.65
2023-04-30T01:55:56.713Z,93.55
2023-04-30T01:56:56.728Z,93.44
2023-04-30T01:57:56.714Z,93.44
2023-04-30T01:58:56.696Z,93.55
2023-04-30T01:59:56.886Z,93.55
2023-04-30T02:00:56.747Z,93.55
2023-04-30T02:01:56.683Z,93.59
2023-04-30T02:02:56.693Z,93.39
2023-04-30T02:03:56.661Z,93.39
2023-04-30T02:04:56.640Z,93.39
2023-04-30T02:05:56.678Z,93.39
2023-04-30T02:06:56.610Z,93.49
2023-04-30T02:07:56.542Z,93.49
2023-04-30T02:08:56.561Z,93.59
2023-04-30T02:09:56.597Z,93.59
2023-04-30T02:10:56.542Z,93.49
2023-04-30T02:11:56.571Z,93.39
2023-04-30T02:12:56.505Z,93.49
2023-04-30T02:13:56.470Z,93.49
2023-04-30T02:14:56.507Z,93.59
2023-04-30T02:15:56.513Z,93.59
2023-04-30T02:16:56.437Z,93.49
2023-04-30T02:17:56.448Z,93.49
2023-04-30T02:18:56.442Z,93.49
2023-04-30T02:19:56.499Z,93.39
2023-04-30T02:20:56.390Z,93.39
2023-04-30T02:21:56.360Z,93.39
2023-04-30T02:22:56.374Z,93.39
2023-04-30T02:23:56.350Z,93.54
2023-04-30T02:24:56.392Z,93.54
2023-04-30T02:25:56.346Z,93.74
2023-04-30T02:26:56.314Z,93.74
2023-04-30T02:27:56.323Z,93.84
2023-04-30T02:28:56.298Z,93.84
2023-04-30T02:29:56.434Z,93.84
2023-04-30T02:30:56.311Z,93.84
2023-04-30T02:31:56.322Z,93.84
2023-04-30T02:32:56.268Z,93.84
2023-04-30T02:33:56.232Z,93.84
2023-04-30T02:34:56.255Z,93.74
2023-04-30T02:35:56.235Z,93.54
2023-04-30T02:36:56.214Z,93.54
2023-04-30T02:37:56.160Z,93.54
2023-04-30T02:38:56.185Z,93.43
2023-04-30T02:39:56.452Z,93.43
2023-04-30T02:40:56.167Z,93.54
2023-04-30T02:41:56.160Z,93.54
2023-04-30T02:42:56.103Z,93.64
2023-04-30T02:43:56.072Z,93.64
2023-04-30T02:44:56.083Z,93.54
2023-04-30T02:45:56.158Z,93.54
2023-04-30T02:46:56.077Z,93.64
2023-04-30T02:47:56.079Z,93.64
2023-04-30T02:48:56.080Z,93.54
2023-04-30T02:49:56.385Z,93.54
2023-04-30T02:50:56.010Z,93.54
2023-04-30T02:51:56.008Z,93.64
2023-04-30T02:52:55.997Z,93.54
2023-04-30T02:53:55.942Z,93.54
2023-04-30T02:54:55.973Z,93.54
2023-04-30T02:55:55.953Z,93.33
2023-04-30T02:56:55.911Z,93.27
2023-04-30T02:57:55.900Z,93.27
2023-04-30T02:58:55.916Z,93.27
2023-04-30T02:59:56.310Z,93.37
2023-04-30T03:00:55.955Z,93.37
2023-04-30T03:01:55.838Z,93.48
2023-04-30T03:02:55.994Z,93.27
2023-04-30T03:03:55.850Z,93.27
2023-04-30T03:04:55.889Z,93.27
2023-04-30T03:05:55.807Z,93.16
2023-04-30T03:06:55.795Z,93.27
2023-04-30T03:07:55.785Z,93.37
2023-04-30T03:08:55.806Z,93.27
2023-04-30T03:09:56.085Z,93.27
2023-04-30T03:10:55.736Z,93.27
2023-04-30T03:11:55.747Z,93.27
2023-04-30T03:12:55.752Z,93.27
2023-04-30T03:13:55.756Z,93.16
2023-04-30T03:14:55.739Z,93.16
2023-04-30T03:15:55.683Z,93.16
2023-04-30T03:16:55.715Z,93.27
2023-04-30T03:17:55.761Z,93.37
2023-04-30T03:18:55.651Z,93.27
2023-04-30T03:19:55.907Z,93.37
2023-04-30T03:20:55.633Z,93.41
2023-04-30T03:21:55.694Z,93.31
2023-04-30T03:22:55.614Z,93.41
2023-04-30T03:23:55.596Z,93.31
2023-04-30T03:24:55.646Z,93.31
2023-04-30T03:25:55.543Z,93.41
2023-04-30T03:26:55.588Z,93.41
2023-04-30T03:27:55.537Z,93.52
2023-04-30T03:28:55.541Z,93.41
2023-04-30T03:29:55.885Z,93.31
2023-04-30T03:30:55.515Z,93.31
2023-04-30T03:31:55.503Z,93.41
2023-04-30T03:32:55.542Z,93.21
2023-04-30T03:33:55.543Z,93.31
2023-04-30T03:34:55.494Z,93.31
2023-04-30T03:35:55.417Z,93.31
2023-04-30T03:36:55.454Z,93.31
2023-04-30T03:37:55.394Z,93.52
2023-04-30T03:38:55.425Z,93.41
2023-04-30T03:39:55.551Z,93.41
2023-04-30T03:40:55.447Z,93.52
2023-04-30T03:41:55.350Z,93.46
2023-04-30T03:42:55.399Z,93.35
2023-04-30T03:43:55.314Z,93.46
2023-04-30T03:44:55.356Z,93.56
2023-04-30T03:45:55.384Z,93.56
2023-04-30T03:46:55.335Z,93.62
2023-04-30T03:47:55.373Z,93.56
2023-04-30T03:48:55.244Z,93.56
2023-04-30T03:49:55.940Z,93.56
2023-04-30T03:50:55.251Z,93.56
2023-04-30T03:51:55.236Z,93.66
2023-04-30T03:52:55.204Z,93.56
2023-04-30T03:54:02.735Z,93.56
2023-04-30T03:54:55.992Z,93.46
2023-04-30T03:55:55.193Z,93.56
2023-04-30T03:56:55.168Z,93.56
2023-04-30T03:57:55.156Z,93.77
2023-04-30T03:58:55.167Z,93.77
2023-04-30T03:59:55.430Z,93.77
2023-04-30T04:00:55.140Z,93.66
2023-04-30T04:01:55.099Z,93.77
2023-04-30T04:02:55.176Z,93.66
2023-04-30T04:03:55.150Z,93.56
2023-04-30T04:04:55.128Z,93.66
2023-04-30T04:05:55.146Z,93.66
2023-04-30T04:06:55.032Z,93.77
2023-04-30T04:07:55.034Z,93.66
2023-04-30T04:08:55.042Z,93.66
2023-04-30T04:09:55.368Z,93.77
2023-04-30T04:10:55.008Z,93.66
2023-04-30T04:11:54.974Z,93.66
2023-04-30T04:12:54.993Z,93.66
2023-04-30T04:13:54.954Z,93.66
2023-04-30T04:14:54.980Z,93.77
2023-04-30T04:15:54.999Z,93.77
2023-04-30T04:16:54.932Z,93.87
2023-04-30T04:17:54.943Z,93.77
2023-04-30T04:18:54.889Z,93.77
2023-04-30T04:19:55.115Z,93.66
2023-04-30T04:20:54.880Z,93.56
2023-04-30T04:21:54.845Z,93.66
2023-04-30T04:22:54.853Z,93.66
2023-04-30T04:23:54.815Z,93.87
2023-04-30T04:24:54.850Z,93.87
2023-04-30T04:25:54.807Z,93.98
2023-04-30T04:26:54.779Z,94.18
2023-04-30T04:27:54.797Z,94.28
2023-04-30T04:28:54.776Z,94.28
2023-04-30T04:29:55.110Z,94.28
2023-04-30T04:30:54.756Z,94.28
2023-04-30T04:31:54.795Z,94.28
2023-04-30T04:32:54.762Z,94.18
2023-04-30T04:33:54.684Z,94.18
2023-04-30T04:34:54.728Z,94.18
2023-04-30T04:35:54.658Z,94.08
2023-04-30T04:36:54.701Z,93.98
2023-04-30T04:37:54.624Z,93.87
2023-04-30T04:38:54.619Z,93.77
2023-04-30T04:39:54.789Z,93.66
2023-04-30T04:40:54.712Z,93.66
2023-04-30T04:41:54.592Z,93.66
2023-04-30T04:42:54.586Z,93.66
2023-04-30T04:43:54.555Z,93.56
2023-04-30T04:44:54.602Z,93.66
2023-04-30T04:45:54.591Z,93.77
2023-04-30T04:46:54.673Z,93.77
2023-04-30T04:47:54.519Z,93.77
2023-04-30T04:48:54.492Z,93.71
2023-04-30T04:49:54.696Z,93.66
2023-04-30T04:50:54.489Z,93.71
2023-04-30T04:51:54.442Z,93.71
2023-04-30T04:52:54.465Z,93.87
2023-04-30T04:53:54.457Z,93.98
2023-04-30T04:54:54.494Z,93.98
2023-04-30T04:55:54.398Z,93.98
2023-04-30T04:56:54.387Z,94.18
2023-04-30T04:57:54.360Z,94.18
2023-04-30T04:58:54.355Z,94.18
2023-04-30T04:59:54.643Z,94.18
2023-04-30T05:00:54.346Z,94.08
2023-04-30T05:01:54.344Z,94.08
2023-04-30T05:02:54.488Z,94.08
2023-04-30T05:03:54.531Z,94.08
2023-04-30T05:04:54.284Z,94.18
2023-04-30T05:05:54.366Z,94.18
2023-04-30T05:06:54.265Z,94.08
2023-04-30T05:07:54.266Z,93.98
2023-04-30T05:08:54.245Z,93.87
2023-04-30T05:09:54.432Z,93.98
2023-04-30T05:10:54.236Z,93.98
2023-04-30T05:11:54.202Z,94.08
2023-04-30T05:12:54.210Z,94.18
2023-04-30T05:13:54.155Z,94.18
2023-04-30T05:14:54.195Z,94.24
2023-04-30T05:15:54.273Z,94.28
2023-04-30T05:16:54.152Z,94.38
2023-04-30T05:17:54.217Z,94.34
2023-04-30T05:18:54.131Z,94.34
2023-04-30T05:19:54.379Z,94.34
2023-04-30T05:20:54.085Z,94.34
2023-04-30T05:21:54.050Z,94.34
2023-04-30T05:22:54.140Z,94.34
2023-04-30T05:23:54.055Z,94.34
2023-04-30T05:24:54.047Z,94.45
2023-04-30T05:25:54.051Z,94.45
2023-04-30T05:26:54.039Z,94.45
2023-04-30T05:27:53.978Z,94.55
2023-04-30T05:28:54.046Z,94.55
2023-04-30T05:29:54.156Z,94.60
2023-04-30T05:30:53.969Z,94.51
2023-04-30T05:31:53.996Z,94.71
2023-04-30T05:32:54.032Z,94.71
2023-04-30T05:33:53.900Z,94.81
2023-04-30T05:34:53.935Z,94.81
2023-04-30T05:35:53.931Z,94.81
2023-04-30T05:36:53.899Z,94.92
2023-04-30T05:37:53.888Z,94.92
2023-04-30T05:38:53.888Z,95.02
2023-04-30T05:39:54.055Z,95.02
2023-04-30T05:40:53.860Z,95.12
2023-04-30T05:41:53.888Z,95.18
2023-04-30T05:42:53.839Z,95.18
2023-04-30T05:43:53.819Z,95.18
2023-04-30T05:44:53.818Z,95.28
2023-04-30T05:45:53.928Z,95.28
2023-04-30T05:46:53.761Z,95.39
2023-04-30T05:47:53.759Z,95.39
2023-04-30T05:48:53.743Z,95.39
2023-04-30T05:49:53.990Z,95.39
2023-04-30T05:50:53.724Z,95.34
2023-04-30T05:51:53.702Z,95.34
2023-04-30T05:52:53.727Z,95.34
2023-04-30T05:53:53.651Z,95.34
2023-04-30T05:54:53.681Z,95.34
2023-04-30T05:55:53.648Z,95.55
2023-04-30T05:56:53.655Z,95.50
2023-04-30T05:57:53.648Z,95.61
2023-04-30T05:58:53.594Z,95.71
2023-04-30T05:59:53.879Z,95.81
2023-04-30T06:00:53.598Z,95.92
2023-04-30T06:01:53.608Z,95.87
2023-04-30T06:02:53.688Z,95.77
2023-04-30T06:03:53.578Z,95.77
2023-04-30T06:04:53.556Z,95.67
2023-04-30T06:05:53.544Z,95.67
2023-04-30T06:06:53.504Z,95.67
2023-04-30T06:07:53.669Z,95.77
2023-04-30T06:08:53.502Z,95.77
2023-04-30T06:09:53.590Z,95.62
2023-04-30T06:10:53.439Z,95.62
2023-04-30T06:11:53.440Z,95.62
2023-04-30T06:12:53.451Z,95.62
2023-04-30T06:13:53.462Z,95.62
2023-04-30T06:14:53.400Z,95.42
2023-04-30T06:15:53.388Z,95.42
2023-04-30T06:16:53.412Z,95.31
2023-04-30T06:17:53.387Z,95.21
2023-04-30T06:18:54.083Z,95.31
2023-04-30T06:19:53.535Z,95.31
2023-04-30T06:20:53.305Z,95.21
2023-04-30T06:21:53.321Z,94.85
2023-04-30T06:22:53.283Z,94.55
2023-04-30T06:23:53.301Z,94.04
2023-04-30T06:24:53.315Z,93.73
2023-04-30T06:25:53.285Z,93.63
2023-04-30T06:26:53.224Z,93.59
2023-04-30T06:27:53.230Z,93.38
2023-04-30T06:28:53.232Z,92.76
2023-04-30T06:29:53.376Z,91.94
2023-04-30T06:30:53.198Z,91.74
2023-04-30T06:31:53.297Z,91.22
2023-04-30T06:32:53.304Z,91.08
2023-04-30T06:33:53.177Z,91.08
2023-04-30T06:34:53.171Z,91.08
2023-04-30T06:35:53.191Z,91.28
2023-04-30T06:36:53.113Z,91.49
2023-04-30T06:37:53.130Z,91.69
2023-04-30T06:38:53.192Z,91.65
2023-04-30T06:39:53.721Z,91.44
2023-04-30T06:40:53.121Z,91.35
2023-04-30T06:41:53.080Z,91.24
2023-04-30T06:42:53.068Z,91.24
2023-04-30T06:43:53.057Z,91.35
2023-04-30T06:44:53.042Z,90.93
2023-04-30T06:45:53.063Z,90.52
2023-04-30T06:46:52.984Z,90.11
2023-04-30T06:47:53.090Z,89.97
2023-04-30T06:48:52.977Z,89.97
2023-04-30T06:49:53.379Z,90.07
2023-04-30T06:50:52.946Z,90.03
2023-04-30T06:51:52.988Z,89.72
2023-04-30T06:52:52.947Z,88.59
2023-04-30T06:53:52.894Z,88.18
2023-04-30T06:54:52.976Z,88.08
2023-04-30T06:55:52.890Z,87.47
2023-04-30T06:56:52.877Z,87.02
2023-04-30T06:57:52.876Z,87.12
2023-04-30T06:58:52.820Z,87.43
2023-04-30T06:59:53.346Z,87.73
2023-04-30T07:00:52.858Z,87.22
2023-04-30T07:01:53.083Z,87.08
2023-04-30T07:02:52.885Z,86.88
2023-04-30T07:03:52.862Z,86.88
2023-04-30T07:04:52.884Z,86.67
2023-04-30T07:05:52.967Z,86.46
2023-04-30T07:06:52.831Z,86.53
2023-04-30T07:07:52.752Z,85.55
2023-04-30T07:08:52.759Z,85.14
2023-04-30T07:09:53.031Z,85.30
2023-04-30T07:10:52.689Z,85.91
2023-04-30T07:11:52.726Z,86.22
2023-04-30T07:12:52.645Z,86.12
2023-04-30T07:13:52.667Z,85.91
2023-04-30T07:14:52.611Z,85.91
2023-04-30T07:15:52.748Z,85.81
2023-04-30T07:16:52.653Z,85.61
2023-04-30T07:17:52.751Z,85.20
2023-04-30T07:18:52.628Z,84.85
2023-04-30T07:19:53.008Z,84.85
2023-04-30T07:20:52.579Z,84.85
2023-04-30T07:21:52.540Z,84.85
2023-04-30T07:22:52.606Z,84.81
2023-04-30T07:23:52.510Z,84.71
2023-04-30T07:24:52.527Z,84.41
2023-04-30T07:25:52.515Z,84.91
2023-04-30T07:26:52.466Z,84.30
2023-04-30T07:27:52.484Z,84.20
2023-04-30T07:28:52.428Z,84.41
2023-04-30T07:29:52.672Z,85.28
2023-04-30T07:30:52.428Z,83.44
2023-04-30T07:31:52.451Z,83.24
2023-04-30T07:32:52.401Z,83.24
2023-04-30T07:33:52.372Z,83.24
2023-04-30T07:34:52.408Z,82.32
2023-04-30T07:35:52.365Z,82.18
2023-04-30T07:36:52.345Z,81.98
2023-04-30T07:37:52.334Z,81.98
2023-04-30T07:38:52.326Z,81.77
2023-04-30T07:39:52.552Z,81.98
2023-04-30T07:40:52.272Z,82.04
2023-04-30T07:41:52.317Z,82.24
2023-04-30T07:42:52.284Z,82.14
2023-04-30T07:43:52.280Z,82.04
2023-04-30T07:44:52.442Z,81.23
2023-04-30T07:45:52.256Z,81.49
2023-04-30T07:46:52.210Z,81.49
2023-04-30T07:47:52.268Z,81.29
2023-04-30T07:48:52.224Z,81.39
2023-04-30T07:49:52.216Z,80.98
2023-04-30T07:50:52.990Z,80.98
2023-04-30T07:51:52.185Z,80.98
2023-04-30T07:52:52.166Z,81.49
2023-04-30T07:53:52.148Z,81.35
2023-04-30T07:54:52.119Z,81.15
2023-04-30T07:55:52.156Z,81.25
2023-04-30T07:56:52.104Z,81.62
2023-04-30T07:57:52.084Z,81.21
2023-04-30T07:58:52.066Z,81.01
2023-04-30T07:59:53.175Z,80.80
2023-04-30T08:00:52.076Z,80.19
2023-04-30T08:01:52.094Z,79.38
2023-04-30T08:02:52.170Z,79.68
2023-04-30T08:03:52.142Z,80.19
2023-04-30T08:04:51.985Z,80.50
2023-04-30T08:05:52.030Z,80.40
2023-04-30T08:06:52.060Z,79.44
2023-04-30T08:07:51.984Z,79.24
2023-04-30T08:08:51.963Z,79.14
2023-04-30T08:09:52.020Z,78.93
2023-04-30T08:10:51.972Z,79.24
2023-04-30T08:11:51.958Z,79.44
2023-04-30T08:12:51.915Z,78.42
2023-04-30T08:13:51.938Z,77.98
2023-04-30T08:14:51.939Z,76.96
2023-04-30T08:15:51.887Z,77.17
2023-04-30T08:16:51.947Z,76.35
2023-04-30T08:17:51.903Z,75.67
2023-04-30T08:18:51.847Z,75.43
2023-04-30T08:19:51.877Z,76.25
2023-04-30T08:20:51.829Z,76.56
2023-04-30T08:21:51.758Z,76.86
2023-04-30T08:22:51.833Z,77.06
2023-04-30T08:23:51.778Z,76.25
2023-04-30T08:24:51.788Z,77.03
2023-04-30T08:25:51.784Z,77.44
2023-04-30T08:26:54.176Z,76.11
2023-04-30T08:27:51.687Z,76.38
2023-04-30T08:28:51.713Z,74.96
2023-04-30T08:29:51.894Z,74.76
2023-04-30T08:30:51.657Z,73.63
2023-04-30T08:31:51.735Z,73.54
2023-04-30T08:32:51.688Z,73.33
2023-04-30T08:33:51.658Z,73.60
2023-04-30T08:34:51.722Z,73.50
2023-04-30T08:35:51.588Z,72.48
2023-04-30T08:36:51.578Z,71.36
2023-04-30T08:37:51.676Z,72.38
2023-04-30T08:38:51.594Z,72.48
2023-04-30T08:39:51.603Z,73.26
2023-04-30T08:40:52.190Z,72.85
2023-04-30T08:41:51.539Z,72.55
2023-04-30T08:42:51.516Z,71.73
2023-04-30T08:43:51.515Z,72.34
2023-04-30T08:44:51.530Z,71.12
2023-04-30T08:45:51.676Z,70.42
2023-04-30T08:46:51.488Z,71.12
2023-04-30T08:47:51.576Z,69.91
2023-04-30T08:48:51.432Z,69.91
2023-04-30T08:49:51.476Z,70.62
2023-04-30T08:50:51.379Z,70.01
2023-04-30T08:51:51.421Z,69.70
2023-04-30T08:52:51.394Z,69.37
2023-04-30T08:53:51.370Z,69.67
2023-04-30T08:54:51.397Z,71.40
2023-04-30T08:55:51.392Z,70.55
2023-04-30T08:56:51.337Z,70.04
2023-04-30T08:57:51.303Z,70.86
2023-04-30T08:58:51.313Z,68.93
2023-04-30T08:59:51.303Z,69.74
2023-04-30T09:00:51.279Z,71.47
2023-04-30T09:01:53.606Z,70.11
2023-04-30T09:02:51.279Z,69.81
2023-04-30T09:03:51.384Z,69.30
2023-04-30T09:04:51.258Z,68.29
2023-04-30T09:05:51.283Z,68.79
2023-04-30T09:06:51.201Z,64.23
2023-04-30T09:08:02.632Z,64.13
2023-04-30T09:08:52.184Z,66.26
2023-04-30T09:09:51.194Z,68.19
2023-04-30T09:10:51.221Z,69.07
2023-04-30T09:11:51.140Z,68.05
2023-04-30T09:12:51.100Z,68.35
2023-04-30T09:13:51.109Z,68.46
2023-04-30T09:14:51.126Z,67.95
2023-04-30T09:15:51.172Z,67.85
2023-04-30T09:16:51.065Z,68.05
2023-04-30T09:17:51.079Z,67.14
2023-04-30T09:18:51.051Z,67.24
2023-04-30T09:19:51.068Z,68.49
2023-04-30T09:20:51.000Z,68.49
2023-04-30T09:21:51.031Z,68.79
2023-04-30T09:22:50.997Z,71.44
2023-04-30T09:23:50.974Z,71.60
2023-04-30T09:24:51.068Z,68.66
2023-04-30T09:25:50.990Z,68.66
2023-04-30T09:26:50.983Z,69.17
2023-04-30T09:27:50.936Z,68.63
2023-04-30T09:28:51.151Z,68.63
2023-04-30T09:29:51.188Z,68.63
2023-04-30T09:30:50.931Z,67.21
2023-04-30T09:31:50.973Z,67.92
2023-04-30T09:32:50.888Z,67.31
2023-04-30T09:33:58.981Z,67.82
2023-04-30T09:34:51.959Z,67.48
2023-04-30T09:35:50.804Z,66.47
2023-04-30T09:36:50.846Z,65.76
2023-04-30T09:37:50.830Z,65.45
2023-04-30T09:38:50.975Z,65.56
2023-04-30T09:39:50.770Z,65.39
2023-04-30T09:40:50.763Z,65.28
2023-04-30T09:41:50.800Z,65.79
2023-04-30T09:42:50.718Z,67.11
2023-04-30T09:43:50.745Z,67.92
2023-04-30T09:44:50.745Z,67.08
2023-04-30T09:45:50.751Z,66.57
2023-04-30T09:46:50.664Z,65.25
2023-04-30T09:47:50.726Z,65.73
2023-04-30T09:48:50.716Z,64.72
2023-04-30T09:49:50.702Z,64.72
2023-04-30T09:50:50.673Z,64.72
2023-04-30T09:51:50.738Z,64.24
2023-04-30T09:52:50.634Z,64.34
2023-04-30T09:53:50.666Z,65.45
2023-04-30T09:54:50.627Z,64.95
2023-04-30T09:55:50.613Z,66.13
2023-04-30T09:56:50.556Z,65.62
2023-04-30T09:57:50.571Z,65.62
2023-04-30T09:58:50.577Z,65.93
2023-04-30T09:59:50.560Z,66.00
2023-04-30T10:00:50.541Z,65.29
2023-04-30T10:01:50.563Z,66.00
2023-04-30T10:02:50.638Z,64.69
2023-04-30T10:03:50.519Z,63.27
2023-04-30T10:04:50.511Z,63.27
2023-04-30T10:05:50.446Z,63.98
2023-04-30T10:06:50.459Z,64.07
2023-04-30T10:07:50.460Z,64.28
2023-04-30T10:08:50.393Z,65.50
2023-04-30T10:09:51.439Z,64.69
2023-04-30T10:10:50.395Z,64.38
2023-04-30T10:11:50.465Z,64.96
2023-04-30T10:12:58.350Z,63.75
2023-04-30T10:13:58.984Z,63.54
2023-04-30T10:14:59.033Z,63.31
2023-04-30T10:15:59.253Z,62.40
2023-04-30T10:16:59.308Z,61.99
2023-04-30T10:17:50.426Z,61.46
2023-04-30T10:18:50.321Z,61.16
2023-04-30T10:19:50.289Z,62.87
2023-04-30T10:20:50.229Z,62.98
2023-04-30T10:21:50.297Z,61.16
2023-04-30T10:22:50.276Z,59.84
2023-04-30T10:23:50.187Z,59.64
2023-04-30T10:24:50.215Z,59.91
2023-04-30T10:25:50.208Z,60.32
2023-04-30T10:26:50.207Z,61.33
2023-04-30T10:27:50.123Z,59.00
2023-04-30T10:28:50.178Z,59.18
2023-04-30T10:29:50.156Z,59.58
2023-04-30T10:30:50.157Z,60.12
2023-04-30T10:31:50.211Z,58.60
2023-04-30T10:32:50.178Z,59.11
2023-04-30T10:33:50.128Z,61.30
2023-04-30T10:34:50.139Z,61.60
2023-04-30T10:35:50.105Z,61.30
2023-04-30T10:36:50.091Z,59.89
2023-04-30T10:37:50.068Z,58.58
2023-04-30T10:38:50.048Z,57.46
2023-04-30T10:39:50.015Z,57.67
2023-04-30T10:40:50.043Z,57.16
2023-04-30T10:41:50.020Z,57.56
2023-04-30T10:42:49.959Z,58.04
2023-04-30T10:43:50.087Z,58.85
2023-04-30T10:44:49.935Z,57.23
2023-04-30T10:45:50.233Z,56.63
2023-04-30T10:46:49.932Z,57.74
2023-04-30T10:47:49.997Z,57.23
2023-04-30T10:48:49.929Z,57.74
2023-04-30T10:49:49.888Z,57.34
2023-04-30T10:50:49.881Z,57.74
2023-04-30T10:51:49.870Z,57.61
2023-04-30T10:52:49.850Z,56.70
2023-04-30T10:53:49.892Z,57.91
2023-04-30T10:54:49.818Z,57.10
2023-04-30T10:55:49.848Z,57.08
2023-04-30T10:56:49.840Z,56.68
2023-04-30T10:57:49.800Z,56.68
2023-04-30T10:58:49.882Z,57.48
2023-04-30T10:59:49.765Z,58.09
2023-04-30T11:00:49.778Z,56.48
2023-04-30T11:01:49.766Z,57.38
2023-04-30T11:02:49.824Z,55.06
2023-04-30T11:03:49.716Z,57.10
2023-04-30T11:04:49.820Z,56.70
2023-04-30T11:05:49.729Z,57.78
2023-04-30T11:06:49.724Z,57.28
2023-04-30T11:07:49.692Z,55.87
2023-04-30T11:08:49.703Z,55.64
2023-04-30T11:09:49.659Z,56.15
2023-04-30T11:10:49.634Z,54.73
2023-04-30T11:11:49.629Z,54.76
2023-04-30T11:12:49.656Z,55.26
2023-04-30T11:13:49.617Z,54.96
2023-04-30T11:14:49.600Z,56.17
2023-04-30T11:15:49.603Z,56.77
2023-04-30T11:16:49.553Z,57.18
2023-04-30T11:17:49.571Z,57.48
2023-04-30T11:18:49.575Z,56.70
2023-04-30T11:19:49.519Z,55.79
2023-04-30T11:20:49.587Z,56.30
2023-04-30T11:21:49.434Z,56.50
2023-04-30T11:22:49.502Z,56.60
2023-04-30T11:23:49.509Z,55.49
2023-04-30T11:24:49.510Z,55.52
2023-04-30T11:25:49.450Z,55.72
2023-04-30T11:26:49.405Z,55.62
2023-04-30T11:27:49.409Z,56.05
2023-04-30T11:28:49.466Z,56.35
2023-04-30T11:29:49.357Z,56.76
2023-04-30T11:30:49.361Z,57.26
2023-04-30T11:31:49.456Z,57.97
2023-04-30T11:32:49.383Z,56.85
2023-04-30T11:33:49.344Z,56.56
2023-04-30T11:34:49.380Z,56.15
2023-04-30T11:35:49.326Z,57.46
2023-04-30T11:36:49.329Z,58.04
2023-04-30T11:37:49.247Z,56.02
2023-04-30T11:38:49.284Z,56.32
2023-04-30T11:39:49.307Z,57.03
2023-04-30T11:40:49.292Z,56.32
2023-04-30T11:41:49.220Z,56.12
2023-04-30T11:42:49.226Z,56.32
2023-04-30T11:43:49.206Z,56.23
2023-04-30T11:44:49.223Z,56.23
2023-04-30T11:45:49.163Z,56.90
2023-04-30T11:46:49.259Z,57.10
2023-04-30T11:47:49.141Z,56.20
2023-04-30T11:48:49.185Z,56.20
2023-04-30T11:49:49.106Z,55.99
2023-04-30T11:50:49.102Z,56.10
2023-04-30T11:51:49.078Z,56.10
2023-04-30T11:52:49.137Z,55.39
2023-04-30T11:53:49.076Z,55.26
2023-04-30T11:54:49.049Z,54.16
2023-04-30T11:55:49.050Z,53.75
2023-04-30T11:56:49.033Z,53.38
2023-04-30T11:57:49.015Z,54.58
2023-04-30T11:58:49.065Z,54.96
2023-04-30T11:59:48.995Z,55.16
2023-04-30T12:00:48.982Z,55.46
2023-04-30T12:01:49.077Z,54.66
2023-04-30T12:02:49.132Z,53.55
2023-04-30T12:03:49.084Z,52.64
2023-04-30T12:04:48.987Z,52.84
2023-04-30T12:05:48.955Z,54.13
2023-04-30T12:06:49.200Z,51.71
2023-04-30T12:07:48.887Z,53.22
2023-04-30T12:08:48.899Z,52.62
2023-04-30T12:09:48.877Z,53.72
2023-04-30T12:10:48.821Z,52.82
2023-04-30T12:11:48.866Z,53.00
2023-04-30T12:12:50.530Z,53.30
2023-04-30T12:13:48.787Z,53.40
2023-04-30T12:14:48.767Z,53.90
2023-04-30T12:15:48.836Z,53.90
2023-04-30T12:16:48.769Z,52.80
2023-04-30T12:17:48.874Z,52.09
2023-04-30T12:18:50.178Z,53.00
2023-04-30T12:19:48.715Z,53.20
2023-04-30T12:20:48.752Z,53.38
2023-04-30T12:21:48.748Z,52.67
2023-04-30T12:22:48.648Z,52.37
2023-04-30T12:23:48.624Z,52.06
2023-04-30T12:24:48.687Z,50.65
2023-04-30T12:25:48.632Z,52.06
2023-04-30T12:26:48.655Z,52.49
2023-04-30T12:27:48.604Z,52.09
2023-04-30T12:28:48.664Z,53.00
2023-04-30T12:29:48.610Z,53.70
2023-04-30T12:30:48.589Z,52.89
2023-04-30T12:31:48.544Z,51.71
2023-04-30T12:32:48.580Z,52.62
2023-04-30T12:33:48.490Z,52.82
2023-04-30T12:34:48.516Z,53.34
2023-04-30T12:35:48.500Z,53.14
2023-04-30T12:36:48.494Z,53.65
2023-04-30T12:37:48.443Z,53.63
2023-04-30T12:38:48.477Z,54.73
2023-04-30T12:39:48.439Z,55.24
2023-04-30T12:40:48.443Z,54.61
2023-04-30T12:41:48.398Z,53.90
2023-04-30T12:42:48.415Z,53.50
2023-04-30T12:43:48.371Z,53.30
2023-04-30T12:44:48.426Z,53.17
2023-04-30T12:45:48.507Z,51.56
2023-04-30T12:46:48.449Z,51.26
2023-04-30T12:47:48.465Z,51.56
2023-04-30T12:48:48.372Z,51.59
2023-04-30T12:49:48.307Z,51.68
2023-04-30T12:50:48.296Z,53.40
2023-04-30T12:51:48.298Z,52.17
2023-04-30T12:52:48.262Z,52.06